sensor_id;sensor_type;location;lat;lon;timestamp;P1;durP1;ratioP1;P2;durP2;ratioP2
5343;SDS011;2694;48.950;8.970;2022-08-02T00:02:04;1.95;;;0.60;;
5343;SDS011;2694;48.950;8.970;2022-08-02T00:04:31;1.60;;;0.73;;
5343;SDS011;2694;48.950;8.970;2022-08-02T00:06:57;1.70;;;0.60;;
5343;SDS011;2694;48.950;8.970;2022-08-02T00:09:24;2.55;;;0.70;;
5343;SDS011;2694;48.950;8.970;2022-08-02T00:11:52;1.13;;;0.68;;
5343;SDS011;2694;48.950;8.970;2022-08-02T00:14:19;1.30;;;0.80;;
5343;SDS011;2694;48.950;8.970;2022-08-02T00:16:46;1.67;;;0.70;;
5343;SDS011;2694;48.950;8.970;2022-08-02T00:19:13;4.50;;;0.70;;
5343;SDS011;2694;48.950;8.970;2022-08-02T00:21:40;2.35;;;0.75;;
5343;SDS011;2694;48.950;8.970;2022-08-02T00:24:07;2.00;;;0.50;;
5343;SDS011;2694;48.950;8.970;2022-08-02T00:26:34;1.70;;;0.70;;
5343;SDS011;2694;48.950;8.970;2022-08-02T00:29:02;2.00;;;0.70;;
5343;SDS011;2694;48.950;8.970;2022-08-02T00:31:29;0.80;;;0.60;;
5343;SDS011;2694;48.950;8.970;2022-08-02T00:33:56;0.85;;;0.60;;
5343;SDS011;2694;48.950;8.970;2022-08-02T00:36:23;1.90;;;0.73;;
5343;SDS011;2694;48.950;8.970;2022-08-02T00:38:50;1.30;;;0.70;;
5343;SDS011;2694;48.950;8.970;2022-08-02T00:41:17;1.40;;;0.60;;
5343;SDS011;2694;48.950;8.970;2022-08-02T00:43:45;0.98;;;0.57;;
5343;SDS011;2694;48.950;8.970;2022-08-02T00:46:14;1.50;;;0.80;;
5343;SDS011;2694;48.950;8.970;2022-08-02T00:48:42;1.30;;;0.80;;
5343;SDS011;2694;48.950;8.970;2022-08-02T00:51:09;1.40;;;0.70;;
5343;SDS011;2694;48.950;8.970;2022-08-02T00:53:36;2.92;;;0.70;;
5343;SDS011;2694;48.950;8.970;2022-08-02T00:56:03;2.10;;;0.80;;
5343;SDS011;2694;48.950;8.970;2022-08-02T00:58:30;0.75;;;0.50;;
5343;SDS011;2694;48.950;8.970;2022-08-02T01:00:57;4.60;;;0.70;;
5343;SDS011;2694;48.950;8.970;2022-08-02T01:03:27;2.55;;;0.70;;
5343;SDS011;2694;48.950;8.970;2022-08-02T01:05:54;2.70;;;0.70;;
5343;SDS011;2694;48.950;8.970;2022-08-02T01:08:21;1.63;;;0.85;;
5343;SDS011;2694;48.950;8.970;2022-08-02T01:10:47;2.08;;;0.70;;
5343;SDS011;2694;48.950;8.970;2022-08-02T01:13:14;0.90;;;0.60;;
5343;SDS011;2694;48.950;8.970;2022-08-02T01:15:42;2.37;;;0.63;;
5343;SDS011;2694;48.950;8.970;2022-08-02T01:18:17;1.63;;;0.80;;
5343;SDS011;2694;48.950;8.970;2022-08-02T01:20:55;0.90;;;0.60;;
5343;SDS011;2694;48.950;8.970;2022-08-02T01:23:50;1.60;;;0.95;;
5343;SDS011;2694;48.950;8.970;2022-08-02T01:26:30;2.00;;;0.80;;
5343;SDS011;2694;48.950;8.970;2022-08-02T01:29:06;1.77;;;1.00;;
5343;SDS011;2694;48.950;8.970;2022-08-02T01:31:39;1.23;;;0.90;;
5343;SDS011;2694;48.950;8.970;2022-08-02T01:34:10;2.30;;;0.87;;
5343;SDS011;2694;48.950;8.970;2022-08-02T01:36:43;2.50;;;0.95;;
5343;SDS011;2694;48.950;8.970;2022-08-02T01:39:13;3.00;;;0.98;;
5343;SDS011;2694;48.950;8.970;2022-08-02T01:41:44;3.40;;;0.77;;
5343;SDS011;2694;48.950;8.970;2022-08-02T01:44:14;1.10;;;0.73;;
5343;SDS011;2694;48.950;8.970;2022-08-02T01:46:44;1.60;;;0.90;;
5343;SDS011;2694;48.950;8.970;2022-08-02T01:49:14;1.30;;;0.98;;
5343;SDS011;2694;48.950;8.970;2022-08-02T01:51:41;1.75;;;0.80;;
5343;SDS011;2694;48.950;8.970;2022-08-02T01:54:28;3.25;;;1.00;;
5343;SDS011;2694;48.950;8.970;2022-08-02T01:56:57;1.80;;;0.88;;
5343;SDS011;2694;48.950;8.970;2022-08-02T01:59:28;1.52;;;0.82;;
5343;SDS011;2694;48.950;8.970;2022-08-02T02:01:57;1.75;;;0.70;;
5343;SDS011;2694;48.950;8.970;2022-08-02T02:04:27;1.20;;;0.80;;
5343;SDS011;2694;48.950;8.970;2022-08-02T02:06:56;1.50;;;0.80;;
5343;SDS011;2694;48.950;8.970;2022-08-02T02:09:24;3.70;;;1.30;;
5343;SDS011;2694;48.950;8.970;2022-08-02T02:11:53;1.35;;;1.00;;
5343;SDS011;2694;48.950;8.970;2022-08-02T02:14:23;3.95;;;1.58;;
5343;SDS011;2694;48.950;8.970;2022-08-02T02:16:51;1.73;;;1.23;;
5343;SDS011;2694;48.950;8.970;2022-08-02T02:19:20;2.50;;;1.07;;
5343;SDS011;2694;48.950;8.970;2022-08-02T02:21:49;2.53;;;1.00;;
5343;SDS011;2694;48.950;8.970;2022-08-02T02:24:16;2.88;;;1.20;;
5343;SDS011;2694;48.950;8.970;2022-08-02T02:26:43;2.20;;;0.80;;
5343;SDS011;2694;48.950;8.970;2022-08-02T02:29:11;1.90;;;0.90;;
5343;SDS011;2694;48.950;8.970;2022-08-02T02:31:39;2.65;;;1.27;;
5343;SDS011;2694;48.950;8.970;2022-08-02T02:34:12;2.00;;;1.10;;
5343;SDS011;2694;48.950;8.970;2022-08-02T02:36:44;2.15;;;1.00;;
5343;SDS011;2694;48.950;8.970;2022-08-02T02:39:14;2.00;;;1.02;;
5343;SDS011;2694;48.950;8.970;2022-08-02T02:41:43;2.73;;;1.27;;
5343;SDS011;2694;48.950;8.970;2022-08-02T02:44:12;1.80;;;1.20;;
5343;SDS011;2694;48.950;8.970;2022-08-02T02:46:43;1.73;;;0.90;;
5343;SDS011;2694;48.950;8.970;2022-08-02T02:49:12;1.70;;;1.10;;
5343;SDS011;2694;48.950;8.970;2022-08-02T02:51:40;3.67;;;1.30;;
5343;SDS011;2694;48.950;8.970;2022-08-02T02:54:07;1.43;;;0.90;;
5343;SDS011;2694;48.950;8.970;2022-08-02T02:56:36;3.00;;;1.00;;
5343;SDS011;2694;48.950;8.970;2022-08-02T02:59:04;1.50;;;1.08;;
5343;SDS011;2694;48.950;8.970;2022-08-02T03:01:31;1.40;;;0.80;;
5343;SDS011;2694;48.950;8.970;2022-08-02T03:03:59;2.17;;;0.95;;
5343;SDS011;2694;48.950;8.970;2022-08-02T03:06:29;2.38;;;1.02;;
5343;SDS011;2694;48.950;8.970;2022-08-02T03:08:56;2.85;;;0.73;;
5343;SDS011;2694;48.950;8.970;2022-08-02T03:11:24;5.53;;;2.37;;
5343;SDS011;2694;48.950;8.970;2022-08-02T03:13:53;5.80;;;2.80;;
5343;SDS011;2694;48.950;8.970;2022-08-02T03:16:22;3.47;;;1.60;;
5343;SDS011;2694;48.950;8.970;2022-08-02T03:18:49;1.85;;;1.45;;
5343;SDS011;2694;48.950;8.970;2022-08-02T03:21:16;3.67;;;1.50;;
5343;SDS011;2694;48.950;8.970;2022-08-02T03:23:45;3.72;;;1.40;;
5343;SDS011;2694;48.950;8.970;2022-08-02T03:26:13;2.10;;;1.23;;
5343;SDS011;2694;48.950;8.970;2022-08-02T03:28:40;2.70;;;1.20;;
5343;SDS011;2694;48.950;8.970;2022-08-02T03:31:08;2.28;;;1.27;;
5343;SDS011;2694;48.950;8.970;2022-08-02T03:33:35;4.05;;;1.30;;
5343;SDS011;2694;48.950;8.970;2022-08-02T03:36:04;4.20;;;1.40;;
5343;SDS011;2694;48.950;8.970;2022-08-02T03:38:35;2.47;;;1.38;;
5343;SDS011;2694;48.950;8.970;2022-08-02T03:41:04;2.78;;;1.00;;
5343;SDS011;2694;48.950;8.970;2022-08-02T03:43:31;3.17;;;1.40;;
5343;SDS011;2694;48.950;8.970;2022-08-02T03:45:58;3.95;;;1.33;;
5343;SDS011;2694;48.950;8.970;2022-08-02T03:48:26;2.60;;;1.20;;
5343;SDS011;2694;48.950;8.970;2022-08-02T03:50:54;1.73;;;1.35;;
5343;SDS011;2694;48.950;8.970;2022-08-02T03:53:22;2.22;;;1.20;;
5343;SDS011;2694;48.950;8.970;2022-08-02T03:55:50;3.85;;;2.35;;
5343;SDS011;2694;48.950;8.970;2022-08-02T03:58:18;4.20;;;2.20;;
5343;SDS011;2694;48.950;8.970;2022-08-02T04:00:47;1.90;;;1.23;;
5343;SDS011;2694;48.950;8.970;2022-08-02T04:03:14;3.80;;;1.20;;
5343;SDS011;2694;48.950;8.970;2022-08-02T04:05:41;2.83;;;1.40;;
5343;SDS011;2694;48.950;8.970;2022-08-02T04:08:08;2.25;;;0.90;;
5343;SDS011;2694;48.950;8.970;2022-08-02T04:10:35;2.50;;;1.40;;
5343;SDS011;2694;48.950;8.970;2022-08-02T04:13:16;2.70;;;1.40;;
5343;SDS011;2694;48.950;8.970;2022-08-02T04:15:45;4.70;;;1.40;;
5343;SDS011;2694;48.950;8.970;2022-08-02T04:18:15;2.90;;;1.48;;
5343;SDS011;2694;48.950;8.970;2022-08-02T04:20:43;3.22;;;1.63;;
5343;SDS011;2694;48.950;8.970;2022-08-02T04:23:13;4.47;;;1.50;;
5343;SDS011;2694;48.950;8.970;2022-08-02T04:25:42;1.70;;;1.40;;
5343;SDS011;2694;48.950;8.970;2022-08-02T04:28:10;3.00;;;1.52;;
5343;SDS011;2694;48.950;8.970;2022-08-02T04:30:38;2.40;;;1.30;;
5343;SDS011;2694;48.950;8.970;2022-08-02T04:33:07;2.80;;;1.40;;
5343;SDS011;2694;48.950;8.970;2022-08-02T04:35:34;2.38;;;1.58;;
5343;SDS011;2694;48.950;8.970;2022-08-02T04:38:01;3.92;;;1.42;;
5343;SDS011;2694;48.950;8.970;2022-08-02T04:40:29;4.32;;;1.60;;
5343;SDS011;2694;48.950;8.970;2022-08-02T04:42:55;2.30;;;1.48;;
5343;SDS011;2694;48.950;8.970;2022-08-02T04:45:22;2.33;;;1.50;;
5343;SDS011;2694;48.950;8.970;2022-08-02T04:47:50;2.20;;;1.40;;
5343;SDS011;2694;48.950;8.970;2022-08-02T04:50:18;2.90;;;1.50;;
5343;SDS011;2694;48.950;8.970;2022-08-02T04:52:45;3.03;;;1.60;;
5343;SDS011;2694;48.950;8.970;2022-08-02T04:55:12;2.15;;;1.40;;
5343;SDS011;2694;48.950;8.970;2022-08-02T04:57:38;2.80;;;1.50;;
5343;SDS011;2694;48.950;8.970;2022-08-02T05:00:21;8.50;;;1.80;;
5343;SDS011;2694;48.950;8.970;2022-08-02T05:02:49;7.30;;;2.03;;
5343;SDS011;2694;48.950;8.970;2022-08-02T05:05:17;4.30;;;2.00;;
5343;SDS011;2694;48.950;8.970;2022-08-02T05:07:44;6.53;;;1.60;;
5343;SDS011;2694;48.950;8.970;2022-08-02T05:10:11;6.97;;;1.55;;
5343;SDS011;2694;48.950;8.970;2022-08-02T05:12:38;4.50;;;1.50;;
5343;SDS011;2694;48.950;8.970;2022-08-02T05:15:06;7.63;;;1.70;;
5343;SDS011;2694;48.950;8.970;2022-08-02T05:17:33;8.90;;;1.52;;
5343;SDS011;2694;48.950;8.970;2022-08-02T05:20:00;2.85;;;1.65;;
5343;SDS011;2694;48.950;8.970;2022-08-02T05:22:29;10.90;;;1.67;;
5343;SDS011;2694;48.950;8.970;2022-08-02T05:24:55;6.22;;;1.70;;
5343;SDS011;2694;48.950;8.970;2022-08-02T05:27:22;3.50;;;1.70;;
5343;SDS011;2694;48.950;8.970;2022-08-02T05:29:49;1.80;;;1.40;;
5343;SDS011;2694;48.950;8.970;2022-08-02T05:32:16;4.43;;;1.90;;
5343;SDS011;2694;48.950;8.970;2022-08-02T05:34:43;6.95;;;2.00;;
5343;SDS011;2694;48.950;8.970;2022-08-02T05:37:10;2.78;;;1.70;;
5343;SDS011;2694;48.950;8.970;2022-08-02T05:39:38;1.98;;;1.50;;
5343;SDS011;2694;48.950;8.970;2022-08-02T05:42:05;3.78;;;1.80;;
5343;SDS011;2694;48.950;8.970;2022-08-02T05:44:32;3.20;;;1.60;;
5343;SDS011;2694;48.950;8.970;2022-08-02T05:46:59;2.63;;;2.10;;
5343;SDS011;2694;48.950;8.970;2022-08-02T05:49:26;3.50;;;1.27;;
5343;SDS011;2694;48.950;8.970;2022-08-02T05:51:55;3.30;;;1.50;;
5343;SDS011;2694;48.950;8.970;2022-08-02T05:54:28;1.65;;;1.50;;
5343;SDS011;2694;48.950;8.970;2022-08-02T05:57:04;2.00;;;1.30;;
5343;SDS011;2694;48.950;8.970;2022-08-02T05:59:37;3.33;;;1.50;;
5343;SDS011;2694;48.950;8.970;2022-08-02T06:02:09;2.05;;;1.42;;
5343;SDS011;2694;48.950;8.970;2022-08-02T06:04:47;3.03;;;1.20;;
5343;SDS011;2694;48.950;8.970;2022-08-02T06:07:21;3.38;;;1.30;;
5343;SDS011;2694;48.950;8.970;2022-08-02T06:09:50;2.65;;;1.50;;
5343;SDS011;2694;48.950;8.970;2022-08-02T06:12:18;3.25;;;1.30;;
5343;SDS011;2694;48.950;8.970;2022-08-02T06:14:45;3.80;;;1.58;;
5343;SDS011;2694;48.950;8.970;2022-08-02T06:17:13;1.83;;;1.30;;
5343;SDS011;2694;48.950;8.970;2022-08-02T06:19:40;4.15;;;1.60;;
5343;SDS011;2694;48.950;8.970;2022-08-02T06:22:08;2.45;;;1.45;;
5343;SDS011;2694;48.950;8.970;2022-08-02T06:24:41;3.33;;;1.67;;
5343;SDS011;2694;48.950;8.970;2022-08-02T06:27:09;2.40;;;1.40;;
5343;SDS011;2694;48.950;8.970;2022-08-02T06:29:38;2.33;;;1.30;;
5343;SDS011;2694;48.950;8.970;2022-08-02T06:32:06;2.60;;;1.40;;
5343;SDS011;2694;48.950;8.970;2022-08-02T06:34:34;1.75;;;1.40;;
5343;SDS011;2694;48.950;8.970;2022-08-02T06:37:05;2.17;;;1.80;;
5343;SDS011;2694;48.950;8.970;2022-08-02T06:39:42;3.08;;;1.40;;
5343;SDS011;2694;48.950;8.970;2022-08-02T06:42:11;3.30;;;1.80;;
5343;SDS011;2694;48.950;8.970;2022-08-02T06:44:41;2.35;;;1.70;;
5343;SDS011;2694;48.950;8.970;2022-08-02T06:47:09;4.60;;;1.90;;
5343;SDS011;2694;48.950;8.970;2022-08-02T06:49:36;2.00;;;1.70;;
5343;SDS011;2694;48.950;8.970;2022-08-02T06:52:03;4.88;;;1.98;;
5343;SDS011;2694;48.950;8.970;2022-08-02T06:54:30;2.28;;;1.80;;
5343;SDS011;2694;48.950;8.970;2022-08-02T06:56:58;3.78;;;1.77;;
5343;SDS011;2694;48.950;8.970;2022-08-02T06:59:25;4.75;;;1.70;;
5343;SDS011;2694;48.950;8.970;2022-08-02T07:01:53;6.63;;;2.20;;
5343;SDS011;2694;48.950;8.970;2022-08-02T07:04:21;4.72;;;1.92;;
5343;SDS011;2694;48.950;8.970;2022-08-02T07:06:49;3.00;;;2.20;;
5343;SDS011;2694;48.950;8.970;2022-08-02T07:09:16;4.80;;;2.20;;
5343;SDS011;2694;48.950;8.970;2022-08-02T07:11:43;3.65;;;2.00;;
5343;SDS011;2694;48.950;8.970;2022-08-02T07:14:09;3.78;;;2.17;;
5343;SDS011;2694;48.950;8.970;2022-08-02T07:16:36;3.40;;;1.90;;
5343;SDS011;2694;48.950;8.970;2022-08-02T07:19:04;3.00;;;2.00;;
5343;SDS011;2694;48.950;8.970;2022-08-02T07:21:31;3.53;;;2.05;;
5343;SDS011;2694;48.950;8.970;2022-08-02T07:23:58;3.97;;;2.00;;
5343;SDS011;2694;48.950;8.970;2022-08-02T07:26:25;4.30;;;2.00;;
5343;SDS011;2694;48.950;8.970;2022-08-02T07:28:51;3.20;;;1.95;;
5343;SDS011;2694;48.950;8.970;2022-08-02T07:31:19;2.20;;;1.97;;
5343;SDS011;2694;48.950;8.970;2022-08-02T07:33:45;3.80;;;2.00;;
5343;SDS011;2694;48.950;8.970;2022-08-02T07:36:14;3.50;;;2.30;;
5343;SDS011;2694;48.950;8.970;2022-08-02T07:38:40;3.60;;;1.80;;
5343;SDS011;2694;48.950;8.970;2022-08-02T07:41:07;3.17;;;2.00;;
5343;SDS011;2694;48.950;8.970;2022-08-02T07:43:34;2.35;;;1.90;;
5343;SDS011;2694;48.950;8.970;2022-08-02T07:46:01;2.50;;;2.00;;
5343;SDS011;2694;48.950;8.970;2022-08-02T07:48:28;2.53;;;1.92;;
5343;SDS011;2694;48.950;8.970;2022-08-02T07:50:54;3.90;;;2.45;;
5343;SDS011;2694;48.950;8.970;2022-08-02T07:53:23;3.35;;;2.47;;
5343;SDS011;2694;48.950;8.970;2022-08-02T07:55:50;2.83;;;2.00;;
5343;SDS011;2694;48.950;8.970;2022-08-02T07:58:17;2.38;;;2.00;;
5343;SDS011;2694;48.950;8.970;2022-08-02T08:00:43;3.10;;;1.85;;
5343;SDS011;2694;48.950;8.970;2022-08-02T08:03:11;3.83;;;1.73;;
5343;SDS011;2694;48.950;8.970;2022-08-02T08:05:38;3.40;;;2.00;;
5343;SDS011;2694;48.950;8.970;2022-08-02T08:08:05;2.00;;;1.70;;
5343;SDS011;2694;48.950;8.970;2022-08-02T08:10:33;4.97;;;2.10;;
5343;SDS011;2694;48.950;8.970;2022-08-02T08:13:00;2.28;;;1.88;;
5343;SDS011;2694;48.950;8.970;2022-08-02T08:15:27;3.10;;;1.98;;
5343;SDS011;2694;48.950;8.970;2022-08-02T08:17:54;2.53;;;2.00;;
5343;SDS011;2694;48.950;8.970;2022-08-02T08:20:20;3.00;;;2.05;;
5343;SDS011;2694;48.950;8.970;2022-08-02T08:22:47;3.80;;;2.20;;
5343;SDS011;2694;48.950;8.970;2022-08-02T08:25:14;6.50;;;1.90;;
5343;SDS011;2694;48.950;8.970;2022-08-02T08:27:47;3.90;;;2.20;;
5343;SDS011;2694;48.950;8.970;2022-08-02T08:30:15;3.30;;;2.10;;
5343;SDS011;2694;48.950;8.970;2022-08-02T08:32:42;3.80;;;2.00;;
5343;SDS011;2694;48.950;8.970;2022-08-02T08:35:10;1.70;;;1.52;;
5343;SDS011;2694;48.950;8.970;2022-08-02T08:37:38;1.85;;;1.75;;
5343;SDS011;2694;48.950;8.970;2022-08-02T08:40:05;3.83;;;1.70;;
5343;SDS011;2694;48.950;8.970;2022-08-02T08:42:35;2.40;;;1.80;;
5343;SDS011;2694;48.950;8.970;2022-08-02T08:45:05;3.40;;;1.67;;
5343;SDS011;2694;48.950;8.970;2022-08-02T08:47:34;3.67;;;1.83;;
5343;SDS011;2694;48.950;8.970;2022-08-02T08:50:03;3.97;;;1.80;;
5343;SDS011;2694;48.950;8.970;2022-08-02T08:52:32;5.00;;;2.00;;
5343;SDS011;2694;48.950;8.970;2022-08-02T08:55:02;2.95;;;1.90;;
5343;SDS011;2694;48.950;8.970;2022-08-02T08:57:29;2.70;;;1.90;;
5343;SDS011;2694;48.950;8.970;2022-08-02T08:59:59;3.43;;;1.77;;
5343;SDS011;2694;48.950;8.970;2022-08-02T09:02:28;3.75;;;1.92;;
5343;SDS011;2694;48.950;8.970;2022-08-02T09:04:59;1.85;;;1.65;;
5343;SDS011;2694;48.950;8.970;2022-08-02T09:07:26;3.00;;;1.80;;
5343;SDS011;2694;48.950;8.970;2022-08-02T09:09:53;4.10;;;1.77;;
5343;SDS011;2694;48.950;8.970;2022-08-02T09:12:20;2.47;;;1.45;;
5343;SDS011;2694;48.950;8.970;2022-08-02T09:14:48;1.60;;;1.50;;
5343;SDS011;2694;48.950;8.970;2022-08-02T09:17:16;2.30;;;1.90;;
5343;SDS011;2694;48.950;8.970;2022-08-02T09:19:44;2.78;;;1.40;;
5343;SDS011;2694;48.950;8.970;2022-08-02T09:22:12;4.70;;;1.52;;
5343;SDS011;2694;48.950;8.970;2022-08-02T09:24:40;1.77;;;1.40;;
5343;SDS011;2694;48.950;8.970;2022-08-02T09:27:11;2.38;;;1.52;;
5343;SDS011;2694;48.950;8.970;2022-08-02T09:29:39;1.70;;;1.60;;
5343;SDS011;2694;48.950;8.970;2022-08-02T09:32:10;2.55;;;1.40;;
5343;SDS011;2694;48.950;8.970;2022-08-02T09:34:45;2.03;;;1.50;;
5343;SDS011;2694;48.950;8.970;2022-08-02T09:37:26;2.70;;;1.55;;
5343;SDS011;2694;48.950;8.970;2022-08-02T09:39:53;1.48;;;1.30;;
5343;SDS011;2694;48.950;8.970;2022-08-02T09:42:23;1.60;;;1.50;;
5343;SDS011;2694;48.950;8.970;2022-08-02T09:44:54;3.50;;;1.40;;
5343;SDS011;2694;48.950;8.970;2022-08-02T09:47:21;1.70;;;1.40;;
5343;SDS011;2694;48.950;8.970;2022-08-02T09:49:50;1.60;;;1.50;;
5343;SDS011;2694;48.950;8.970;2022-08-02T09:52:23;2.10;;;1.60;;
5343;SDS011;2694;48.950;8.970;2022-08-02T09:54:52;3.13;;;1.67;;
5343;SDS011;2694;48.950;8.970;2022-08-02T09:57:25;3.28;;;1.60;;
5343;SDS011;2694;48.950;8.970;2022-08-02T09:59:55;4.00;;;1.80;;
5343;SDS011;2694;48.950;8.970;2022-08-02T10:02:23;3.85;;;1.33;;
5343;SDS011;2694;48.950;8.970;2022-08-02T10:04:52;3.50;;;1.40;;
5343;SDS011;2694;48.950;8.970;2022-08-02T10:07:19;1.95;;;1.50;;
5343;SDS011;2694;48.950;8.970;2022-08-02T10:09:47;3.50;;;1.30;;
5343;SDS011;2694;48.950;8.970;2022-08-02T10:12:14;2.03;;;1.50;;
5343;SDS011;2694;48.950;8.970;2022-08-02T10:14:40;1.90;;;1.10;;
5343;SDS011;2694;48.950;8.970;2022-08-02T10:17:07;3.05;;;1.30;;
5343;SDS011;2694;48.950;8.970;2022-08-02T10:19:35;4.15;;;1.60;;
5343;SDS011;2694;48.950;8.970;2022-08-02T10:22:04;1.70;;;1.30;;
5343;SDS011;2694;48.950;8.970;2022-08-02T10:24:35;2.47;;;1.52;;
5343;SDS011;2694;48.950;8.970;2022-08-02T10:27:04;2.00;;;1.50;;
5343;SDS011;2694;48.950;8.970;2022-08-02T10:29:33;3.00;;;1.40;;
5343;SDS011;2694;48.950;8.970;2022-08-02T10:32:02;2.30;;;1.50;;
5343;SDS011;2694;48.950;8.970;2022-08-02T10:34:33;3.00;;;1.40;;
5343;SDS011;2694;48.950;8.970;2022-08-02T10:37:05;2.15;;;1.50;;
5343;SDS011;2694;48.950;8.970;2022-08-02T10:39:37;4.00;;;1.70;;
5343;SDS011;2694;48.950;8.970;2022-08-02T10:42:05;3.47;;;1.40;;
5343;SDS011;2694;48.950;8.970;2022-08-02T10:44:32;3.03;;;1.48;;
5343;SDS011;2694;48.950;8.970;2022-08-02T10:47:19;1.75;;;1.60;;
5343;SDS011;2694;48.950;8.970;2022-08-02T10:49:48;1.95;;;1.23;;
5343;SDS011;2694;48.950;8.970;2022-08-02T10:52:18;2.15;;;1.35;;
5343;SDS011;2694;48.950;8.970;2022-08-02T10:54:49;1.98;;;1.63;;
5343;SDS011;2694;48.950;8.970;2022-08-02T10:57:21;4.80;;;1.30;;
5343;SDS011;2694;48.950;8.970;2022-08-02T10:59:50;1.83;;;1.40;;
5343;SDS011;2694;48.950;8.970;2022-08-02T11:05:13;2.10;;;1.80;;
5343;SDS011;2694;48.950;8.970;2022-08-02T11:07:44;2.30;;;1.67;;
5343;SDS011;2694;48.950;8.970;2022-08-02T11:13:05;1.70;;;1.50;;
5343;SDS011;2694;48.950;8.970;2022-08-02T11:15:54;1.40;;;1.30;;
5343;SDS011;2694;48.950;8.970;2022-08-02T11:21:30;1.25;;;1.10;;
5343;SDS011;2694;48.950;8.970;2022-08-02T11:26:51;1.70;;;1.60;;
5343;SDS011;2694;48.950;8.970;2022-08-02T11:29:18;1.48;;;1.38;;
5343;SDS011;2694;48.950;8.970;2022-08-02T11:31:45;2.80;;;1.60;;
5343;SDS011;2694;48.950;8.970;2022-08-02T11:34:12;2.33;;;1.40;;
5343;SDS011;2694;48.950;8.970;2022-08-02T11:36:44;2.63;;;1.35;;
5343;SDS011;2694;48.950;8.970;2022-08-02T11:39:13;3.40;;;1.20;;
5343;SDS011;2694;48.950;8.970;2022-08-02T11:41:42;2.55;;;1.80;;
5343;SDS011;2694;48.950;8.970;2022-08-02T11:44:13;2.90;;;1.35;;
5343;SDS011;2694;48.950;8.970;2022-08-02T11:46:40;3.85;;;1.23;;
5343;SDS011;2694;48.950;8.970;2022-08-02T11:49:10;2.30;;;1.50;;
5343;SDS011;2694;48.950;8.970;2022-08-02T11:51:49;2.00;;;1.80;;
5343;SDS011;2694;48.950;8.970;2022-08-02T11:54:26;2.40;;;1.45;;
5343;SDS011;2694;48.950;8.970;2022-08-02T11:56:55;3.60;;;1.70;;
5343;SDS011;2694;48.950;8.970;2022-08-02T11:59:37;1.50;;;1.27;;
5343;SDS011;2694;48.950;8.970;2022-08-02T12:02:04;4.63;;;1.80;;
5343;SDS011;2694;48.950;8.970;2022-08-02T12:04:31;2.23;;;1.37;;
5343;SDS011;2694;48.950;8.970;2022-08-02T12:06:59;7.30;;;1.50;;
5343;SDS011;2694;48.950;8.970;2022-08-02T12:09:27;3.17;;;1.50;;
5343;SDS011;2694;48.950;8.970;2022-08-02T12:11:57;2.30;;;1.58;;
5343;SDS011;2694;48.950;8.970;2022-08-02T12:14:25;2.50;;;1.40;;
5343;SDS011;2694;48.950;8.970;2022-08-02T12:16:53;1.60;;;1.40;;
5343;SDS011;2694;48.950;8.970;2022-08-02T12:19:38;2.40;;;1.27;;
5343;SDS011;2694;48.950;8.970;2022-08-02T12:22:07;2.10;;;1.20;;
5343;SDS011;2694;48.950;8.970;2022-08-02T12:24:35;1.42;;;1.30;;
5343;SDS011;2694;48.950;8.970;2022-08-02T12:27:04;2.75;;;1.20;;
5343;SDS011;2694;48.950;8.970;2022-08-02T12:29:32;2.10;;;1.27;;
5343;SDS011;2694;48.950;8.970;2022-08-02T12:32:01;2.10;;;1.40;;
5343;SDS011;2694;48.950;8.970;2022-08-02T12:34:29;1.80;;;1.20;;
5343;SDS011;2694;48.950;8.970;2022-08-02T12:36:58;7.20;;;1.40;;
5343;SDS011;2694;48.950;8.970;2022-08-02T12:39:33;3.58;;;2.13;;
5343;SDS011;2694;48.950;8.970;2022-08-02T12:42:01;2.05;;;1.40;;
5343;SDS011;2694;48.950;8.970;2022-08-02T12:44:30;3.00;;;1.30;;
5343;SDS011;2694;48.950;8.970;2022-08-02T12:46:57;2.17;;;1.40;;
5343;SDS011;2694;48.950;8.970;2022-08-02T12:49:25;2.13;;;1.40;;
5343;SDS011;2694;48.950;8.970;2022-08-02T12:51:52;1.60;;;1.40;;
5343;SDS011;2694;48.950;8.970;2022-08-02T12:54:20;2.85;;;1.30;;
5343;SDS011;2694;48.950;8.970;2022-08-02T12:56:49;2.60;;;1.45;;
5343;SDS011;2694;48.950;8.970;2022-08-02T12:59:31;1.83;;;1.25;;
5343;SDS011;2694;48.950;8.970;2022-08-02T13:02:00;3.38;;;1.50;;
5343;SDS011;2694;48.950;8.970;2022-08-02T13:04:28;3.70;;;1.50;;
5343;SDS011;2694;48.950;8.970;2022-08-02T13:06:56;2.40;;;1.20;;
5343;SDS011;2694;48.950;8.970;2022-08-02T13:09:23;6.80;;;1.57;;
5343;SDS011;2694;48.950;8.970;2022-08-02T13:11:50;3.70;;;1.27;;
5343;SDS011;2694;48.950;8.970;2022-08-02T13:14:18;4.50;;;1.25;;
5343;SDS011;2694;48.950;8.970;2022-08-02T13:16:45;6.00;;;1.00;;
5343;SDS011;2694;48.950;8.970;2022-08-02T13:19:13;16.08;;;4.38;;
5343;SDS011;2694;48.950;8.970;2022-08-02T13:21:40;1.50;;;1.10;;
5343;SDS011;2694;48.950;8.970;2022-08-02T13:24:08;3.00;;;1.20;;
5343;SDS011;2694;48.950;8.970;2022-08-02T13:26:38;2.10;;;1.50;;
5343;SDS011;2694;48.950;8.970;2022-08-02T13:29:05;2.47;;;1.30;;
5343;SDS011;2694;48.950;8.970;2022-08-02T13:31:34;1.27;;;1.00;;
5343;SDS011;2694;48.950;8.970;2022-08-02T13:34:02;2.60;;;1.27;;
5343;SDS011;2694;48.950;8.970;2022-08-02T13:36:30;1.80;;;1.40;;
5343;SDS011;2694;48.950;8.970;2022-08-02T13:38:57;1.63;;;1.30;;
5343;SDS011;2694;48.950;8.970;2022-08-02T13:41:24;2.30;;;1.60;;
5343;SDS011;2694;48.950;8.970;2022-08-02T13:43:51;2.00;;;1.30;;
5343;SDS011;2694;48.950;8.970;2022-08-02T13:46:18;3.10;;;1.20;;
5343;SDS011;2694;48.950;8.970;2022-08-02T13:48:46;2.30;;;1.10;;
5343;SDS011;2694;48.950;8.970;2022-08-02T13:51:13;1.90;;;1.02;;
5343;SDS011;2694;48.950;8.970;2022-08-02T13:53:40;5.22;;;1.48;;
5343;SDS011;2694;48.950;8.970;2022-08-02T13:56:07;2.50;;;1.20;;
5343;SDS011;2694;48.950;8.970;2022-08-02T13:58:34;3.10;;;1.58;;
5343;SDS011;2694;48.950;8.970;2022-08-02T14:01:01;2.37;;;1.73;;
5343;SDS011;2694;48.950;8.970;2022-08-02T14:03:28;2.45;;;1.38;;
5343;SDS011;2694;48.950;8.970;2022-08-02T14:05:56;3.20;;;1.35;;
5343;SDS011;2694;48.950;8.970;2022-08-02T14:08:23;4.90;;;1.55;;
5343;SDS011;2694;48.950;8.970;2022-08-02T14:10:50;1.42;;;1.20;;
5343;SDS011;2694;48.950;8.970;2022-08-02T14:13:17;1.75;;;1.00;;
5343;SDS011;2694;48.950;8.970;2022-08-02T14:15:45;1.57;;;1.27;;
5343;SDS011;2694;48.950;8.970;2022-08-02T14:18:12;1.95;;;1.10;;
5343;SDS011;2694;48.950;8.970;2022-08-02T14:20:39;2.30;;;1.30;;
5343;SDS011;2694;48.950;8.970;2022-08-02T14:23:07;2.10;;;1.40;;
5343;SDS011;2694;48.950;8.970;2022-08-02T14:25:34;3.35;;;1.40;;
5343;SDS011;2694;48.950;8.970;2022-08-02T14:28:02;4.32;;;1.60;;
5343;SDS011;2694;48.950;8.970;2022-08-02T14:30:29;1.80;;;1.30;;
5343;SDS011;2694;48.950;8.970;2022-08-02T14:32:56;1.85;;;1.20;;
5343;SDS011;2694;48.950;8.970;2022-08-02T14:35:23;1.88;;;1.45;;
5343;SDS011;2694;48.950;8.970;2022-08-02T14:37:50;3.60;;;1.30;;
5343;SDS011;2694;48.950;8.970;2022-08-02T14:40:18;2.00;;;1.20;;
5343;SDS011;2694;48.950;8.970;2022-08-02T14:42:45;1.52;;;1.10;;
5343;SDS011;2694;48.950;8.970;2022-08-02T14:45:12;1.73;;;1.15;;
5343;SDS011;2694;48.950;8.970;2022-08-02T14:47:40;3.60;;;1.40;;
5343;SDS011;2694;48.950;8.970;2022-08-02T14:50:07;1.55;;;1.33;;
5343;SDS011;2694;48.950;8.970;2022-08-02T14:52:34;1.50;;;1.17;;
5343;SDS011;2694;48.950;8.970;2022-08-02T14:55:01;1.90;;;1.40;;
5343;SDS011;2694;48.950;8.970;2022-08-02T14:57:30;6.18;;;1.38;;
5343;SDS011;2694;48.950;8.970;2022-08-02T14:59:57;2.35;;;1.30;;
5343;SDS011;2694;48.950;8.970;2022-08-02T15:02:25;6.13;;;1.20;;
5343;SDS011;2694;48.950;8.970;2022-08-02T15:04:52;3.30;;;1.40;;
5343;SDS011;2694;48.950;8.970;2022-08-02T15:07:19;3.90;;;1.20;;
5343;SDS011;2694;48.950;8.970;2022-08-02T15:09:46;3.60;;;1.00;;
5343;SDS011;2694;48.950;8.970;2022-08-02T15:12:13;2.78;;;1.40;;
5343;SDS011;2694;48.950;8.970;2022-08-02T15:14:41;1.90;;;1.40;;
5343;SDS011;2694;48.950;8.970;2022-08-02T15:17:08;1.70;;;1.20;;
5343;SDS011;2694;48.950;8.970;2022-08-02T15:19:36;1.67;;;1.20;;
5343;SDS011;2694;48.950;8.970;2022-08-02T15:22:05;2.15;;;1.30;;
5343;SDS011;2694;48.950;8.970;2022-08-02T15:24:32;2.20;;;1.40;;
5343;SDS011;2694;48.950;8.970;2022-08-02T15:26:59;2.42;;;1.20;;
5343;SDS011;2694;48.950;8.970;2022-08-02T15:29:26;3.10;;;1.60;;
5343;SDS011;2694;48.950;8.970;2022-08-02T15:31:54;1.70;;;1.17;;
5343;SDS011;2694;48.950;8.970;2022-08-02T15:34:20;2.80;;;1.30;;
5343;SDS011;2694;48.950;8.970;2022-08-02T15:36:47;1.53;;;1.20;;